Time;durP1;ratioP1;P1;durP2;ratioP2;P2;SDS_P1;SDS_P2;PMS_P1;PMS_P2;Temp;Humidity;BMP_temperature;BMP_pressure;BME280_temperature;BME280_humidity;BME280_pressure;Samples;Min_cycle;Max_cycle;Signal;HPM_P1;HPM_P2
2022/10/25 00:00:27;;;;;;;24.23;13.02;;;21.10;96.30;;;;;;6308159;22;20421;-78
2022/10/25 00:02:53;;;;;;;19.85;12.10;;;21.10;96.30;;;;;;6308221;22;20005;-77
2022/10/25 00:05:19;;;;;;;17.40;12.00;;;21.10;96.30;;;;;;6280426;22;20004;-77
2022/10/25 00:07:44;;;;;;;22.13;13.40;;;21.10;96.40;;;;;;6280915;22;20057;-77
2022/10/25 00:10:10;;;;;;;23.05;13.90;;;21.10;96.40;;;;;;6307836;22;20480;-78
2022/10/25 00:12:44;;;;;;;20.08;12.57;;;21.10;96.40;;;;;;6308173;22;20031;-78
2022/10/25 00:15:13;;;;;;;29.23;16.02;;;21.10;96.30;;;;;;6307757;22;20026;-78
2022/10/25 00:17:39;;;;;;;21.20;12.38;;;21.10;96.30;;;;;;6280303;22;20007;-79
2022/10/25 00:20:05;;;;;;;23.80;12.52;;;21.00;96.40;;;;;;6307473;22;20425;-78
2022/10/25 00:22:30;;;;;;;19.95;12.95;;;21.00;96.50;;;;;;6308030;22;20002;-79
2022/10/25 00:24:56;;;;;;;24.48;13.40;;;21.00;96.60;;;;;;6307547;22;20094;-78
2022/10/25 00:27:22;;;;;;;20.35;13.73;;;21.00;96.70;;;;;;6279695;22;19999;-78
2022/10/25 00:29:47;;;;;;;21.85;12.95;;;21.00;96.70;;;;;;6306785;22;20031;-78
2022/10/25 00:32:13;;;;;;;19.23;12.63;;;21.10;96.60;;;;;;6306375;22;20302;-79
2022/10/25 00:34:39;;;;;;;20.75;13.10;;;21.10;96.50;;;;;;6307226;22;20000;-79
2022/10/25 00:37:05;;;;;;;21.05;13.75;;;21.10;96.50;;;;;;6279528;22;20113;-79
2022/10/25 00:39:31;;;;;;;22.38;14.50;;;21.10;96.40;;;;;;6307290;22;20462;-79
2022/10/25 00:41:57;;;;;;;21.60;14.30;;;21.10;96.40;;;;;;6307321;22;20008;-79
2022/10/25 00:44:35;;;;;;;18.88;12.73;;;21.00;96.60;;;;;;6307477;22;19999;-79
2022/10/25 00:47:13;;;;;;;19.48;13.43;;;21.00;96.60;;;;;;6306899;22;19995;-79
2022/10/25 00:49:41;;;;;;;19.40;12.85;;;21.00;96.70;;;;;;6306779;22;20037;-79
2022/10/25 00:52:09;;;;;;;22.55;13.95;;;20.90;96.90;;;;;;6306831;22;20370;-78
2022/10/25 00:54:40;;;;;;;23.10;14.63;;;20.90;97.00;;;;;;6306952;22;20318;-78
2022/10/25 00:57:21;;;;;;;22.60;14.93;;;21.00;97.00;;;;;;6306776;22;20030;-78
2022/10/25 00:59:48;;;;;;;23.15;14.27;;;21.00;97.00;;;;;;6306078;22;20007;-78
2022/10/25 01:02:16;;;;;;;20.83;12.93;;;21.00;97.00;;;;;;6307440;22;20003;-77
2022/10/25 01:04:42;;;;;;;21.35;13.50;;;21.00;97.00;;;;;;6307189;22;20348;-77
2022/10/25 01:07:08;;;;;;;22.35;14.43;;;21.00;97.10;;;;;;6306196;22;20026;-78
2022/10/25 01:09:37;;;;;;;25.30;13.00;;;21.00;97.20;;;;;;6307229;22;20003;-77
2022/10/25 01:12:03;;;;;;;19.83;13.00;;;21.00;97.20;;;;;;6307133;22;20033;-78
2022/10/25 01:14:32;;;;;;;19.13;13.23;;;21.00;97.30;;;;;;6306392;22;19999;-77
2022/10/25 01:17:07;;;;;;;16.70;12.20;;;21.00;97.30;;;;;;6306537;22;20120;-78
2022/10/25 01:19:54;;;;;;;21.85;13.20;;;21.00;97.20;;;;;;6306953;22;20349;-78
2022/10/25 01:22:19;;;;;;;17.25;12.43;;;21.10;97.20;;;;;;6307265;22;20004;-78
2022/10/25 01:25:12;;;;;;;19.25;13.45;;;21.10;97.20;;;;;;6307408;22;19995;-77
2022/10/25 01:27:47;;;;;;;20.00;13.77;;;21.00;97.00;;;;;;6307138;22;19999;-77
2022/10/25 01:30:22;;;;;;;19.33;13.02;;;21.10;97.10;;;;;;6306741;22;19999;-77
2022/10/25 01:33:15;;;;;;;21.65;12.80;;;21.10;97.10;;;;;;6307414;22;19999;-77
2022/10/25 01:35:46;;;;;;;26.23;14.38;;;21.10;97.00;;;;;;6306733;22;20136;-77
2022/10/25 01:38:17;;;;;;;25.50;14.25;;;21.00;97.00;;;;;;6306964;22;20000;-77
2022/10/25 01:41:15;;;;;;;21.90;13.85;;;21.00;97.00;;;;;;6306682;22;20425;-78
2022/10/25 01:44:03;;;;;;;26.75;15.13;;;21.00;97.10;;;;;;6301965;22;20003;-78
2022/10/25 01:46:38;;;;;;;24.00;15.10;;;20.90;97.30;;;;;;6306830;22;20070;-78
2022/10/25 01:49:07;;;;;;;27.48;16.10;;;20.80;97.60;;;;;;6279606;22;20345;-78
2022/10/25 01:51:35;;;;;;;19.30;13.40;;;20.80;97.60;;;;;;6280632;22;20315;-78
2022/10/25 01:54:01;;;;;;;21.98;14.63;;;20.80;97.70;;;;;;6306858;22;20007;-78
2022/10/25 01:56:30;;;;;;;18.25;13.30;;;20.80;97.60;;;;;;6306649;22;20369;-77
2022/10/25 01:59:24;;;;;;;23.10;13.47;;;20.70;97.90;;;;;;6278295;22;20011;-77
2022/10/25 02:02:22;;;;;;;28.90;17.42;;;20.70;97.80;;;;;;6306788;22;19999;-77
2022/10/25 02:04:51;;;;;;;22.88;14.40;;;20.70;97.90;;;;;;6294506;22;20413;-77
2022/10/25 02:07:36;;;;;;;21.60;15.38;;;20.70;98.10;;;;;;6306695;22;20048;-78
2022/10/25 02:10:14;;;;;;;27.23;16.65;;;20.70;98.00;;;;;;6306552;22;20417;-77
2022/10/25 02:12:55;;;;;;;28.45;16.27;;;20.60;98.30;;;;;;6305901;22;20071;-78
2022/10/25 02:15:58;;;;;;;25.13;14.68;;;20.50;98.90;;;;;;6305723;22;20019;-78
2022/10/25 02:18:28;;;;;;;18.55;13.40;;;20.50;99.00;;;;;;6290595;22;20003;-78
2022/10/25 02:20:55;;;;;;;;;;;20.60;98.90;;;;;;6307069;22;19999;-78
2022/10/25 02:23:23;;;;;;;22.63;14.10;;;20.60;98.80;;;;;;6306060;22;19906;-78
2022/10/25 02:25:50;;;;;;;20.63;12.93;;;20.70;98.70;;;;;;6278951;22;20302;-77
2022/10/25 02:28:19;;;;;;;21.30;13.40;;;20.70;98.80;;;;;;6306282;22;20003;-79
2022/10/25 02:30:46;;;;;;;20.52;13.50;;;20.80;98.50;;;;;;6308382;22;19999;-79
2022/10/25 02:33:12;;;;;;;29.73;18.15;;;20.80;98.30;;;;;;6306900;22;20425;-77
2022/10/25 02:35:38;;;;;;;27.98;19.83;;;20.80;98.40;;;;;;6279988;22;20007;-78
2022/10/25 02:38:03;;;;;;;25.23;15.63;;;20.70;98.90;;;;;;6279507;22;20333;-78
2022/10/25 02:40:29;;;;;;;30.75;19.73;;;20.60;99.30;;;;;;6307249;22;20042;-77
2022/10/25 02:42:55;;;;;;;33.50;19.15;;;20.70;99.20;;;;;;6279913;22;19999;-77
2022/10/25 02:45:21;;;;;;;23.30;15.55;;;20.60;99.20;;;;;;6306385;22;19999;-77
2022/10/25 02:47:47;;;;;;;24.83;14.50;;;20.70;99.00;;;;;;6305161;22;20011;-79
2022/10/25 02:50:13;;;;;;;19.70;14.38;;;20.70;98.90;;;;;;6306449;22;20078;-79
2022/10/25 02:52:39;;;;;;;28.67;15.65;;;20.70;99.00;;;;;;6306128;22;20506;-78
2022/10/25 02:55:05;;;;;;;25.23;15.27;;;20.70;98.80;;;;;;6306862;22;20023;-78
2022/10/25 02:57:33;;;;;;;23.08;13.95;;;20.80;98.70;;;;;;6307635;22;20003;-78
2022/10/25 02:59:59;;;;;;;22.88;14.10;;;20.80;98.50;;;;;;6308562;22;20372;-78
2022/10/25 03:02:24;;;;;;;24.42;13.02;;;20.80;98.40;;;;;;6308889;22;20049;-79
2022/10/25 03:04:50;;;;;;;21.38;12.65;;;20.80;98.10;;;;;;6308707;22;20017;-73
2022/10/25 03:07:16;;;;;;;21.40;10.68;;;20.90;97.90;;;;;;6307772;22;20053;-73
2022/10/25 03:09:41;;;;;;;16.52;9.98;;;20.90;97.70;;;;;;6281778;22;20006;-73
2022/10/25 03:12:07;;;;;;;13.32;9.73;;;20.90;97.50;;;;;;6280906;22;20026;-72
2022/10/25 03:14:33;;;;;;;13.18;8.32;;;20.90;97.10;;;;;;6281159;22;20007;-71
2022/10/25 03:16:58;;;;;;;13.57;7.57;;;20.90;97.00;;;;;;6279594;22;20011;-72
2022/10/25 03:19:24;;;;;;;11.70;6.97;;;20.80;96.30;;;;;;6308209;22;20004;-72
2022/10/25 03:21:50;;;;;;;11.30;6.40;;;20.80;96.50;;;;;;6307360;22;20082;-72
2022/10/25 03:24:16;;;;;;;8.77;4.70;;;20.80;96.30;;;;;;6307291;22;20041;-72
2022/10/25 03:26:41;;;;;;;7.95;4.70;;;20.80;96.00;;;;;;6307295;22;20029;-72
2022/10/25 03:29:07;;;;;;;5.32;4.30;;;20.80;95.60;;;;;;6306918;22;20049;-73
2022/10/25 03:31:33;;;;;;;6.32;3.58;;;20.80;95.20;;;;;;6308755;22;20073;-72
2022/10/25 03:33:59;;;;;;;8.85;3.83;;;20.80;95.10;;;;;;6279935;22;20007;-72
2022/10/25 03:36:24;;;;;;;9.82;4.05;;;20.80;94.90;;;;;;6307651;22;20363;-74
2022/10/25 03:38:50;;;;;;;5.60;2.72;;;20.70;93.70;;;;;;6280043;22;20090;-74
2022/10/25 03:41:16;;;;;;;7.35;2.83;;;20.60;93.70;;;;;;6308173;22;20035;-73
2022/10/25 03:43:41;;;;;;;9.23;2.65;;;20.40;94.10;;;;;;6306981;22;19999;-73
2022/10/25 03:46:07;;;;;;;3.08;2.28;;;20.20;93.50;;;;;;6307892;22;20283;-72
2022/10/25 03:48:33;;;;;;;4.90;2.47;;;20.10;94.00;;;;;;6307904;22;20410;-72
2022/10/25 03:50:59;;;;;;;4.82;1.92;;;19.90;94.10;;;;;;6308654;22;20348;-72
2022/10/25 03:53:24;;;;;;;3.13;1.65;;;19.90;94.20;;;;;;6280551;22;20030;-72
2022/10/25 03:55:50;;;;;;;3.63;1.40;;;19.90;94.50;;;;;;6307957;22;20010;-72
2022/10/25 03:58:18;;;;;;;4.15;1.35;;;20.00;94.50;;;;;;6307056;22;19999;-72
2022/10/25 04:00:44;;;;;;;4.45;1.40;;;20.00;94.10;;;;;;6308188;22;20015;-72
2022/10/25 04:03:09;;;;;;;2.45;1.38;;;20.10;94.30;;;;;;6307774;22;20057;-73
2022/10/25 04:05:35;;;;;;;2.28;1.33;;;20.20;94.30;;;;;;6279975;22;20028;-73
2022/10/25 04:08:01;;;;;;;3.78;1.80;;;20.20;94.20;;;;;;6279560;22;20027;-72
2022/10/25 04:10:26;;;;;;;4.18;0.95;;;20.00;93.70;;;;;;6307504;22;20440;-73
2022/10/25 04:12:52;;;;;;;4.43;1.42;;;20.00;94.00;;;;;;6279510;22;20015;-72
2022/10/25 04:15:18;;;;;;;1.95;1.50;;;20.10;93.90;;;;;;6307753;22;20078;-72
2022/10/25 04:17:48;;;;;;;3.58;0.90;;;19.90;93.90;;;;;;6306311;22;20441;-73
2022/10/25 04:20:14;;;;;;;3.97;1.80;;;19.90;94.00;;;;;;6279732;22;20007;-73
2022/10/25 04:22:40;;;;;;;1.83;1.13;;;19.80;94.30;;;;;;6307646;22;20050;-73
2022/10/25 04:25:06;;;;;;;3.83;1.20;;;19.70;94.40;;;;;;6280945;22;20003;-73
2022/10/25 04:27:31;;;;;;;2.33;1.02;;;19.70;94.50;;;;;;6306809;22;20009;-72
2022/10/25 04:29:57;;;;;;;2.03;0.80;;;19.80;94.50;;;;;;6307049;22;20049;-72
2022/10/25 04:32:26;;;;;;;3.38;0.90;;;19.70;94.60;;;;;;6306150;22;19999;-72
2022/10/25 04:34:52;;;;;;;2.38;0.88;;;19.60;94.70;;;;;;6308275;22;20409;-72
2022/10/25 04:37:17;;;;;;;1.35;0.93;;;19.70;94.80;;;;;;6307067;22;19995;-72
2022/10/25 04:39:43;;;;;;;4.65;1.00;;;19.80;94.80;;;;;;6307607;22;20000;-72
2022/10/25 04:42:09;;;;;;;6.05;0.95;;;19.80;94.70;;;;;;6279745;22;20452;-72
2022/10/25 04:44:34;;;;;;;3.50;0.82;;;19.90;94.80;;;;;;6308091;22;20317;-71
2022/10/25 04:47:00;;;;;;;1.75;0.82;;;20.00;94.90;;;;;;6279625;22;20003;-72
2022/10/25 04:49:26;;;;;;;3.05;0.95;;;20.00;94.90;;;;;;6308088;22;20136;-79
2022/10/25 04:51:51;;;;;;;1.08;0.80;;;20.10;94.90;;;;;;6307242;22;20466;-80
2022/10/25 04:54:17;;;;;;;2.30;0.73;;;20.10;94.90;;;;;;6279955;22;20302;-79
2022/10/25 04:56:43;;;;;;;3.38;0.73;;;20.10;94.90;;;;;;6306708;22;20041;-78
2022/10/25 04:59:08;;;;;;;1.80;0.85;;;20.10;94.90;;;;;;6300276;22;20031;-78
2022/10/25 05:01:34;;;;;;;1.70;0.82;;;20.10;94.90;;;;;;6278344;22;20007;-78
2022/10/25 05:04:00;;;;;;;2.30;0.90;;;20.00;94.90;;;;;;6301551;22;20062;-79
2022/10/25 05:06:26;;;;;;;10.00;1.30;;;20.00;94.80;;;;;;6304835;22;20406;-77
2022/10/25 05:08:52;;;;;;;2.55;1.05;;;19.90;94.70;;;;;;6305506;22;20003;-76
2022/10/25 05:11:21;;;;;;;3.38;1.40;;;20.00;94.80;;;;;;6306092;22;20030;-75
2022/10/25 05:13:46;;;;;;;1.67;0.90;;;19.90;94.80;;;;;;6306541;22;20318;-81
2022/10/25 05:16:22;;;;;;;3.25;0.80;;;19.90;94.90;;;;;;6306656;22;20405;-77
2022/10/25 05:18:55;;;;;;;3.40;1.02;;;19.90;94.80;;;;;;6305179;22;20018;-77
2022/10/25 05:21:29;;;;;;;1.42;0.85;;;19.80;94.80;;;;;;6306187;22;20418;-77
2022/10/25 05:24:08;;;;;;;1.00;0.70;;;19.60;94.80;;;;;;6302559;22;20000;-77
2022/10/25 05:26:34;;;;;;;2.55;1.13;;;19.50;95.20;;;;;;6306743;22;20299;-77
2022/10/25 05:29:03;;;;;;;2.88;1.00;;;19.40;95.20;;;;;;6310293;22;19999;-73
2022/10/25 05:31:30;;;;;;;1.48;1.00;;;19.40;95.30;;;;;;6312333;22;20309;-73
2022/10/25 05:34:00;;;;;;;2.17;1.10;;;19.10;95.80;;;;;;6311602;22;20006;-75
2022/10/25 05:36:31;;;;;;;1.20;0.65;;;19.10;96.00;;;;;;6311003;22;20007;-77
2022/10/25 05:39:00;;;;;;;2.40;0.95;;;19.10;95.90;;;;;;6306370;22;20004;-77
2022/10/25 05:41:26;;;;;;;4.35;0.90;;;19.20;95.90;;;;;;6277503;22;20090;-72
2022/10/25 05:43:52;;;;;;;2.25;0.80;;;19.30;95.90;;;;;;6300145;22;20027;-72
2022/10/25 05:46:20;;;;;;;5.30;1.00;;;19.40;95.80;;;;;;6307396;22;19999;-77
2022/10/25 05:48:47;;;;;;;4.50;1.13;;;19.30;95.50;;;;;;6307425;22;19999;-72
2022/10/25 05:51:17;;;;;;;2.08;0.98;;;19.20;95.80;;;;;;6307443;22;20029;-73
2022/10/25 05:53:44;;;;;;;1.60;0.63;;;19.10;95.70;;;;;;6306751;22;19999;-72
2022/10/25 05:56:11;;;;;;;1.77;0.50;;;19.10;95.80;;;;;;6307058;22;20413;-72
2022/10/25 05:58:37;;;;;;;1.65;0.80;;;19.20;95.80;;;;;;6307029;22;20060;-72
2022/10/25 06:01:03;;;;;;;2.25;1.13;;;19.20;95.70;;;;;;6306807;22;20086;-73
2022/10/25 06:03:29;;;;;;;1.75;0.77;;;19.00;95.90;;;;;;6307563;22;20015;-72
2022/10/25 06:06:02;;;;;;;1.73;0.50;;;18.80;96.00;;;;;;6307017;22;19999;-72
2022/10/25 06:08:29;;;;;;;1.42;0.68;;;18.90;96.10;;;;;;6307409;22;20058;-72
2022/10/25 06:10:55;;;;;;;4.30;1.10;;;19.00;96.00;;;;;;6306507;22;20364;-72
2022/10/25 06:13:20;;;;;;;3.42;0.85;;;18.90;95.80;;;;;;6305115;22;20082;-71
2022/10/25 06:15:46;;;;;;;2.22;0.50;;;18.80;96.30;;;;;;6305655;22;20003;-72
2022/10/25 06:18:12;;;;;;;1.33;0.60;;;18.90;96.30;;;;;;6306173;22;19995;-71
2022/10/25 06:20:37;;;;;;;0.82;0.43;;;18.90;96.20;;;;;;6307085;22;19999;-71
2022/10/25 06:23:03;;;;;;;3.60;0.80;;;19.00;96.10;;;;;;6306324;22;20044;-71
2022/10/25 06:25:29;;;;;;;2.03;0.70;;;19.00;96.10;;;;;;6297904;22;20060;-76
2022/10/25 06:27:55;;;;;;;3.15;0.68;;;19.10;96.20;;;;;;6303234;22;19999;-71
2022/10/25 06:30:20;;;;;;;2.55;0.60;;;19.20;96.10;;;;;;6275553;22;20007;-77
2022/10/25 06:32:46;;;;;;;1.73;0.80;;;19.30;96.00;;;;;;6281098;22;20030;-70
2022/10/25 06:35:12;;;;;;;1.52;0.95;;;19.30;95.90;;;;;;6281795;22;20007;-71
2022/10/25 06:37:38;;;;;;;2.92;0.80;;;19.40;95.70;;;;;;6309655;22;20283;-77
2022/10/25 06:40:04;;;;;;;1.67;0.60;;;19.40;95.70;;;;;;6310395;22;20007;-71
2022/10/25 06:42:30;;;;;;;2.53;0.95;;;19.30;95.50;;;;;;6310033;22;19999;-70
2022/10/25 06:44:55;;;;;;;1.65;0.60;;;19.40;95.60;;;;;;6309791;22;20049;-77
2022/10/25 06:47:22;;;;;;;2.75;0.98;;;19.30;95.60;;;;;;6281407;22;20035;-70
2022/10/25 06:49:47;;;;;;;1.55;0.85;;;19.40;95.60;;;;;;6281727;22;20005;-70
2022/10/25 06:52:13;;;;;;;2.70;0.90;;;19.40;95.60;;;;;;6310006;22;20074;-70
2022/10/25 06:54:39;;;;;;;4.63;0.77;;;19.50;95.70;;;;;;6281974;22;20011;-70
2022/10/25 06:57:05;;;;;;;2.58;0.70;;;19.50;95.90;;;;;;6309255;22;20053;-76
2022/10/25 06:59:30;;;;;;;2.60;0.70;;;19.50;95.50;;;;;;6309845;22;20030;-71
2022/10/25 07:01:57;;;;;;;1.08;0.73;;;19.50;95.40;;;;;;6309639;22;20414;-72
2022/10/25 07:04:22;;;;;;;1.17;0.73;;;19.50;95.40;;;;;;6282408;22;20010;-78
2022/10/25 07:06:48;;;;;;;2.33;1.00;;;19.50;95.40;;;;;;6307788;22;20094;-70
2022/10/25 07:09:14;;;;;;;1.95;1.00;;;19.40;95.10;;;;;;6308696;22;20026;-71
2022/10/25 07:11:40;;;;;;;2.40;0.75;;;19.30;95.20;;;;;;6282163;22;20007;-70
2022/10/25 07:14:08;;;;;;;2.33;1.00;;;19.30;95.40;;;;;;6308365;22;20015;-70
2022/10/25 07:16:33;;;;;;;2.67;1.00;;;19.30;95.40;;;;;;6308865;22;20456;-71
2022/10/25 07:19:00;;;;;;;2.17;1.02;;;19.20;95.40;;;;;;6308540;22;20003;-72
2022/10/25 07:21:27;;;;;;;1.88;0.82;;;19.30;95.50;;;;;;6309575;22;20003;-72
2022/10/25 07:23:53;;;;;;;10.65;0.80;;;19.20;95.50;;;;;;6309879;22;20006;-71
2022/10/25 07:26:21;;;;;;;2.05;1.00;;;19.30;95.60;;;;;;6309583;22;20027;-71
2022/10/25 07:28:48;;;;;;;2.70;0.80;;;19.30;95.60;;;;;;6309666;22;19995;-71
2022/10/25 07:31:17;;;;;;;2.10;0.75;;;19.30;95.60;;;;;;6309192;22;20003;-71
2022/10/25 07:33:42;;;;;;;1.60;0.77;;;19.40;95.60;;;;;;6309613;22;20333;-71
2022/10/25 07:36:08;;;;;;;3.22;1.23;;;19.40;95.60;;;;;;6309530;22;19999;-71
2022/10/25 07:38:34;;;;;;;2.25;0.80;;;19.40;95.40;;;;;;6309456;22;20003;-72
2022/10/25 07:41:00;;;;;;;2.30;0.88;;;19.50;95.50;;;;;;6309329;22;20031;-73
2022/10/25 07:43:26;;;;;;;5.38;1.20;;;19.60;95.60;;;;;;6306907;22;20322;-72
2022/10/25 07:45:53;;;;;;;2.70;0.90;;;19.60;95.60;;;;;;6307003;22;19999;-73
2022/10/25 07:48:18;;;;;;;6.22;0.90;;;19.70;95.50;;;;;;6308287;22;20019;-79
2022/10/25 07:50:44;;;;;;;5.13;1.10;;;19.80;95.30;;;;;;6307646;22;20003;-72
2022/10/25 07:53:10;;;;;;;3.38;0.90;;;19.80;94.80;;;;;;6299671;22;20401;-72
2022/10/25 07:55:35;;;;;;;4.45;1.60;;;19.80;95.00;;;;;;6306073;22;20456;-72
2022/10/25 07:58:03;;;;;;;1.38;0.80;;;19.80;95.00;;;;;;6305091;22;20010;-71
2022/10/25 08:00:29;;;;;;;1.77;0.80;;;19.70;94.90;;;;;;6306510;22;20078;-77
2022/10/25 08:02:55;;;;;;;1.27;0.88;;;19.70;95.00;;;;;;6307521;22;20084;-71
2022/10/25 08:05:22;;;;;;;2.15;1.00;;;19.60;94.90;;;;;;6305598;22;20488;-72
2022/10/25 08:07:49;;;;;;;3.45;1.17;;;19.50;95.10;;;;;;6307045;22;20615;-71
2022/10/25 08:10:18;;;;;;;2.13;0.90;;;19.50;95.10;;;;;;6279105;22;20010;-71
2022/10/25 08:12:44;;;;;;;1.80;0.98;;;19.40;95.20;;;;;;6306968;22;20007;-77
2022/10/25 08:15:10;;;;;;;1.75;0.95;;;19.30;95.40;;;;;;6279830;22;20387;-77
2022/10/25 08:17:36;;;;;;;1.60;0.75;;;19.10;95.60;;;;;;6279356;22;20019;-71
2022/10/25 08:20:01;;;;;;;3.45;0.95;;;19.20;95.70;;;;;;6305659;22;20028;-71
2022/10/25 08:22:27;;;;;;;2.05;0.88;;;19.30;95.60;;;;;;6307085;22;19995;-71
2022/10/25 08:24:53;;;;;;;1.70;1.13;;;19.50;95.70;;;;;;6279417;22;20130;-71
2022/10/25 08:27:18;;;;;;;3.28;0.80;;;19.50;95.40;;;;;;6306509;22;20464;-71
2022/10/25 08:29:44;;;;;;;1.23;1.00;;;19.50;95.30;;;;;;6306446;22;20049;-77
2022/10/25 08:32:10;;;;;;;2.53;1.10;;;19.60;95.40;;;;;;6306483;22;20034;-72
2022/10/25 08:34:36;;;;;;;1.63;0.80;;;19.50;95.00;;;;;;6307093;22;19995;-71
2022/10/25 08:37:02;;;;;;;1.90;0.85;;;19.60;95.30;;;;;;6307438;22;20074;-76
2022/10/25 08:39:28;;;;;;;1.80;0.73;;;19.60;95.30;;;;;;6305673;22;20057;-78
2022/10/25 08:41:56;;;;;;;3.97;1.25;;;19.70;95.30;;;;;;6304767;22;20003;-73
2022/10/25 08:44:31;;;;;;;1.50;1.00;;;19.80;95.30;;;;;;6278308;22;20003;-79
2022/10/25 08:47:32;;;;;;;2.70;1.08;;;19.80;95.20;;;;;;6278797;22;19999;-72
2022/10/25 08:50:12;;;;;;;2.20;1.08;;;19.90;95.30;;;;;;6278503;22;20006;-79
2022/10/25 08:52:57;;;;;;;9.60;1.42;;;19.90;94.90;;;;;;6278760;22;20011;-77
2022/10/25 08:55:40;;;;;;;2.55;1.17;;;19.90;95.20;;;;;;6306944;22;19995;-78
2022/10/25 08:58:22;;;;;;;2.70;1.13;;;19.80;95.00;;;;;;6306925;22;20477;-78
2022/10/25 09:00:48;;;;;;;3.40;1.15;;;19.80;95.10;;;;;;6306876;22;19999;-79
2022/10/25 09:03:25;;;;;;;3.20;1.00;;;19.80;95.10;;;;;;6307233;22;20070;-78
2022/10/25 09:06:18;;;;;;;2.40;1.00;;;19.90;95.20;;;;;;6306283;22;19999;-78
2022/10/25 09:09:09;;;;;;;2.45;0.90;;;20.00;95.30;;;;;;6306439;22;20056;-71
2022/10/25 09:12:01;;;;;;;4.43;1.10;;;20.20;95.30;;;;;;6306185;22;20070;-79
2022/10/25 09:14:46;;;;;;;2.88;1.30;;;20.30;94.90;;;;;;6279679;22;20348;-72
2022/10/25 09:17:19;;;;;;;2.33;1.30;;;20.20;94.20;;;;;;6278820;22;19999;-78
2022/10/25 09:19:54;;;;;;;3.03;1.35;;;20.20;94.50;;;;;;6307070;22;20011;-72
2022/10/25 09:22:42;;;;;;;3.10;1.17;;;20.20;94.50;;;;;;6307359;22;19999;-71
2022/10/25 09:25:13;;;;;;;3.42;1.15;;;20.20;94.50;;;;;;6305836;22;20124;-77
2022/10/25 09:27:48;;;;;;;3.58;0.80;;;20.20;94.40;;;;;;6277877;22;20418;-71
2022/10/25 09:30:15;;;;;;;2.92;1.10;;;20.30;94.50;;;;;;6305723;22;20041;-77
2022/10/25 09:32:48;;;;;;;4.25;1.05;;;20.30;94.20;;;;;;6306260;22;20005;-71
2022/10/25 09:35:15;;;;;;;3.75;1.38;;;20.40;94.30;;;;;;6305843;22;20417;-71
2022/10/25 09:37:48;;;;;;;1.58;0.93;;;20.40;94.00;;;;;;6305291;22;20091;-72
2022/10/25 09:40:22;;;;;;;4.22;1.30;;;20.40;94.20;;;;;;6306407;22;20329;-77
2022/10/25 09:42:53;;;;;;;4.15;1.13;;;20.60;94.30;;;;;;6279478;22;20007;-71
2022/10/25 09:45:31;;;;;;;3.58;1.20;;;20.80;93.70;;;;;;6305298;22;20030;-78
2022/10/25 09:48:08;;;;;;;5.63;1.20;;;21.00;93.70;;;;;;6278494;22;20102;-77
2022/10/25 09:50:45;;;;;;;6.88;1.40;;;21.00;93.10;;;;;;6305455;22;19999;-77
2022/10/25 09:53:16;;;;;;;2.53;0.98;;;21.00;92.60;;;;;;6306168;22;20010;-73
2022/10/25 09:55:50;;;;;;;2.25;1.27;;;21.00;93.10;;;;;;6278675;22;20007;-73
2022/10/25 09:58:23;;;;;;;1.23;0.93;;;21.10;93.20;;;;;;6305545;22;20003;-72
2022/10/25 10:00:50;;;;;;;1.83;0.90;;;21.20;93.20;;;;;;6278122;22;20004;-73
2022/10/25 10:03:17;;;;;;;3.00;1.27;;;21.40;93.20;;;;;;6304922;22;20393;-72
2022/10/25 10:06:08;;;;;;;4.70;1.15;;;21.60;92.80;;;;;;6305933;22;20376;-73
2022/10/25 10:08:35;;;;;;;1.88;1.02;;;21.80;92.60;;;;;;6304617;22;20397;-72
2022/10/25 10:11:03;;;;;;;4.75;1.40;;;22.10;92.50;;;;;;6276365;22;20049;-73
2022/10/25 10:13:43;;;;;;;5.13;0.98;;;22.30;91.80;;;;;;6304681;22;20031;-73
2022/10/25 10:16:34;;;;;;;2.83;1.10;;;22.50;91.10;;;;;;6304515;22;20337;-72
2022/10/25 10:19:17;;;;;;;2.33;1.17;;;22.60;91.30;;;;;;6305667;22;20060;-73
2022/10/25 10:21:54;;;;;;;6.35;1.20;;;22.80;90.90;;;;;;6306294;22;20018;-73
2022/10/25 10:24:32;;;;;;;3.13;1.17;;;22.90;89.70;;;;;;6306391;22;20006;-80
2022/10/25 10:27:04;;;;;;;2.60;1.10;;;23.00;90.30;;;;;;6306415;22;19999;-80
2022/10/25 10:29:35;;;;;;;7.53;1.60;;;23.10;90.10;;;;;;6306878;22;20124;-80
2022/10/25 10:32:21;;;;;;;1.58;0.98;;;23.30;89.90;;;;;;6278474;22;20003;-80
2022/10/25 10:35:01;;;;;;;3.50;1.38;;;23.50;88.10;;;;;;6279281;22;20034;-80
2022/10/25 10:37:28;;;;;;;;;;;23.10;84.10;;;;;;6307820;22;20048;-80
2022/10/25 10:39:56;;;;;;;4.40;0.82;;;22.80;85.50;;;;;;6306359;22;20285;-80
2022/10/25 10:42:34;;;;;;;1.23;0.80;;;23.00;88.10;;;;;;6305117;22;20026;-80
2022/10/25 10:45:14;;;;;;;2.10;0.90;;;23.20;88.30;;;;;;6305653;22;20114;-79
2022/10/25 10:47:48;;;;;;;3.03;1.42;;;23.50;87.90;;;;;;6304908;22;20003;-80
2022/10/25 10:50:23;;;;;;;2.50;1.10;;;23.80;84.30;;;;;;6276526;22;19999;-72
2022/10/25 10:52:51;;;;;;;1.52;0.93;;;23.80;83.40;;;;;;6304697;22;20003;-73
2022/10/25 10:55:35;;;;;;;3.58;0.80;;;23.70;84.60;;;;;;6305273;22;20011;-72
2022/10/25 10:58:22;;;;;;;2.97;0.82;;;23.90;86.00;;;;;;6304360;22;19995;-73
2022/10/25 11:01:07;;;;;;;3.55;1.40;;;23.90;83.80;;;;;;6276195;22;20041;-74
2022/10/25 11:03:39;;;;;;;1.50;0.60;;;24.20;81.50;;;;;;6304949;22;20421;-75
2022/10/25 11:06:06;;;;;;;1.23;1.00;;;24.40;83.20;;;;;;6305004;22;19999;-75
2022/10/25 11:08:33;;;;;;;4.13;1.05;;;24.50;83.60;;;;;;6321075;22;20026;-86
2022/10/25 11:11:18;;;;;;;5.22;1.17;;;24.80;83.90;;;;;;6333788;22;19998;-86
2022/10/25 11:13:54;;;;;;;1.10;0.57;;;25.10;83.50;;;;;;6336817;22;20003;-87
2022/10/25 11:16:28;;;;;;;6.78;1.65;;;25.50;82.80;;;;;;6335391;22;20006;-88
2022/10/25 11:19:24;;;;;;;1.60;0.80;;;25.90;81.60;;;;;;6338364;22;20006;-88
2022/10/25 11:22:22;;;;;;;2.63;1.27;;;26.30;80.80;;;;;;6339192;22;19999;-89
2022/10/25 11:24:54;;;;;;;4.88;1.10;;;26.70;78.90;;;;;;6338794;22;20006;-90
2022/10/25 11:28:01;;;;;;;2.17;0.82;;;27.60;77.90;;;;;;6311813;22;20010;-91
2022/10/25 11:30:47;;;;;;;1.60;0.70;;;29.00;75.10;;;;;;6336868;22;20676;-88
2022/10/25 11:33:47;;;;;;;2.35;1.05;;;30.40;71.10;;;;;;6290731;22;20007;-88
2022/10/25 11:36:37;;;;;;;2.42;1.13;;;31.30;64.00;;;;;;6337999;22;20081;-88
2022/10/25 11:39:26;;;;;;;2.42;0.98;;;31.90;65.20;;;;;;6335696;22;20003;-86
2022/10/25 11:42:05;;;;;;;2.30;0.85;;;32.70;63.20;;;;;;6307823;22;20007;-79
2022/10/25 11:44:43;;;;;;;1.90;1.00;;;33.40;61.20;;;;;;6306042;22;20005;-89
2022/10/25 11:47:39;;;;;;;1.85;1.10;;;34.00;59.40;;;;;;6337449;22;19995;-89
2022/10/25 11:50:27;;;;;;;2.22;1.05;;;34.40;57.80;;;;;;6311489;22;20005;-86
2022/10/25 11:52:58;;;;;;;2.13;0.98;;;34.90;56.90;;;;;;6309718;22;20003;-87
2022/10/25 11:55:30;;;;;;;1.58;1.10;;;35.20;55.40;;;;;;6338369;22;19999;-88
2022/10/25 11:58:24;;;;;;;3.63;1.20;;;35.40;54.40;;;;;;6337032;22;20002;-86
2022/10/25 12:01:21;;;;;;;2.70;1.38;;;35.50;54.20;;;;;;6309112;22;20084;-84
2022/10/25 12:04:20;;;;;;;2.20;1.08;;;35.50;52.80;;;;;;6337491;22;19999;-89
2022/10/25 12:07:21;;;;;;;3.55;1.20;;;35.40;52.40;;;;;;6337734;22;19995;-83
2022/10/25 12:10:04;;;;;;;5.47;1.48;;;35.00;52.30;;;;;;6302499;22;20023;-82
2022/10/25 12:12:45;;;;;;;3.05;1.42;;;34.90;53.00;;;;;;6338847;22;20306;-90
2022/10/25 12:15:23;;;;;;;1.75;0.93;;;34.70;52.90;;;;;;6338758;22;20312;-89
2022/10/25 12:17:50;;;;;;;2.22;1.20;;;34.60;53.00;;;;;;6337590;22;20431;-82
2022/10/25 12:20:35;;;;;;;3.25;1.10;;;34.40;53.90;;;;;;6310501;22;20006;-83
2022/10/25 12:23:04;;;;;;;1.70;1.27;;;34.30;53.20;;;;;;6338917;22;20421;-84
2022/10/25 12:26:23;;;;;;;3.20;1.52;;;34.00;52.90;;;;;;6338977;22;20554;-89
2022/10/25 12:28:49;;;;;;;2.93;1.10;;;33.90;53.60;;;;;;6242227;23;20327;-89
2022/10/25 12:31:30;;;;;;;3.85;1.60;;;33.70;53.70;;;;;;6243877;23;20408;-92
2022/10/25 12:34:20;;;;;;;2.80;1.20;;;33.50;53.50;;;;;;6280535;22;20006;-87
2022/10/25 12:39:17;;;;;;;1.48;0.95;;;33.40;51.30;;;;;;6306000;22;19914;-86
2022/10/25 12:41:50;;;;;;;1.95;1.13;;;33.30;53.20;;;;;;6306295;22;20063;-83
2022/10/25 12:44:54;;;;;;;2.33;1.15;;;33.30;53.80;;;;;;6303132;22;19999;-82
2022/10/25 12:47:23;;;;;;;1.88;1.08;;;33.30;54.00;;;;;;6151269;23;20038;-81
2022/10/25 12:49:57;;;;;;;4.95;1.30;;;33.50;54.40;;;;;;6176654;23;20088;-89
2022/10/25 12:52:29;;;;;;;1.20;0.93;;;33.60;53.20;;;;;;6236467;22;20409;-91
2022/10/25 12:55:16;;;;;;;5.43;1.50;;;33.40;52.70;;;;;;6301459;22;20025;-90
2022/10/25 12:58:23;;;;;;;2.83;1.30;;;32.90;52.50;;;;;;6306905;22;19995;-89
2022/10/25 13:01:09;;;;;;;3.20;1.50;;;32.20;53.50;;;;;;6151515;23;20044;-82
2022/10/25 13:04:16;;;;;;;2.38;1.08;;;31.50;54.30;;;;;;6303393;22;19999;-91
2022/10/25 13:06:46;;;;;;;1.23;1.00;;;30.70;56.30;;;;;;6306984;22;20324;-92
2022/10/25 13:09:15;;;;;;;4.20;1.75;;;29.80;57.40;;;;;;6308272;22;19996;-90